Time;durP1;ratioP1;P1;durP2;ratioP2;P2;SDS_P1;SDS_P2;PMS_P1;PMS_P2;Temp;Humidity;BMP_temperature;BMP_pressure;BME280_temperature;BME280_humidity;BME280_pressure;Samples;Min_cycle;Max_cycle;Signal;HPM_P1;HPM_P2
2022/03/22 00:00:26;;;;;;;43.45;21.80;;;;;;;1.51;55.20;102511.13;5571820;32;34218;-65
2022/03/22 00:03:30;;;;;;;42.58;21.20;;;;;;;1.42;55.93;102514.09;5571356;32;34037;-64
2022/03/22 00:06:34;;;;;;;39.00;20.23;;;;;;;1.38;55.67;102515.13;5571724;32;34393;-65
2022/03/22 00:09:37;;;;;;;40.20;20.75;;;;;;;1.19;55.91;102519.31;5571454;32;33910;-65
2022/03/22 00:12:40;;;;;;;39.60;20.33;;;;;;;1.15;56.11;102521.19;5571670;32;33983;-64
2022/03/22 00:15:44;;;;;;;37.97;20.83;;;;;;;1.31;55.64;102514.47;5571327;32;34036;-64
2022/03/22 00:19:06;;;;;;;43.38;20.85;;;;;;;1.16;55.81;102512.44;5571184;32;35341;-65
2022/03/22 00:22:11;;;;;;;43.17;21.62;;;;;;;1.31;55.97;102514.47;5571097;32;34875;-64
2022/03/22 00:25:16;;;;;;;37.85;19.83;;;;;;;1.16;56.40;102501.16;5571166;32;34839;-64
2022/03/22 00:28:19;;;;;;;42.53;20.85;;;;;;;1.06;56.91;102511.06;5570977;32;34691;-64
2022/03/22 00:31:21;;;;;;;41.75;20.95;;;;;;;0.97;57.54;102507.94;5557418;32;34137;-64
2022/03/22 00:34:25;;;;;;;44.55;21.12;;;;;;;0.81;57.98;102508.47;5557535;32;34696;-65
2022/03/22 00:37:29;;;;;;;41.50;20.50;;;;;;;0.77;58.56;102513.88;5571445;32;34452;-65
2022/03/22 00:40:32;;;;;;;37.75;19.70;;;;;;;0.91;58.73;102516.84;5571068;32;33866;-65
2022/03/22 00:43:35;;;;;;;37.72;19.73;;;;;;;0.91;58.52;102508.16;5571100;32;34553;-65
2022/03/22 00:46:39;;;;;;;38.33;20.52;;;;;;;0.85;58.66;102506.59;5571056;32;34560;-65
2022/03/22 00:49:42;;;;;;;44.00;21.25;;;;;;;0.90;59.08;102504.69;5570892;32;35122;-64
2022/03/22 00:52:45;;;;;;;40.75;20.42;;;;;;;0.74;59.30;102499.12;5570883;32;34174;-65
2022/03/22 00:55:48;;;;;;;40.28;20.83;;;;;;;0.58;59.80;102497.13;5557375;32;35171;-65
2022/03/22 01:00:01;;;;;;;39.25;20.83;;;;;;;0.51;60.20;102493.84;5570813;32;35321;-65
2022/03/22 01:02:14;;;;;;;39.88;20.90;;;;;;;0.39;60.72;102492.50;5571154;32;33965;-65
2022/03/22 01:05:19;;;;;;;41.92;19.67;;;;;;;0.39;61.01;102495.09;5570782;32;34463;-65
2022/03/22 01:08:23;;;;;;;40.05;20.50;;;;;;;0.36;61.23;102496.97;5570481;32;33853;-65
2022/03/22 01:11:26;;;;;;;39.83;19.52;;;;;;;0.62;60.73;102498.72;5570773;32;34017;-65
2022/03/22 01:14:28;;;;;;;35.22;20.17;;;;;;;0.60;60.48;102496.16;5570826;32;33911;-65
2022/03/22 01:17:33;;;;;;;36.78;19.40;;;;;;;0.61;60.96;102492.62;5570783;32;34352;-65
2022/03/22 01:20:39;;;;;;;36.13;18.40;;;;;;;0.71;60.52;102495.78;5557063;32;34700;-64
2022/03/22 01:23:42;;;;;;;37.03;19.85;;;;;;;0.51;60.69;102493.00;5570944;32;34767;-65
2022/03/22 01:26:44;;;;;;;39.47;19.02;;;;;;;0.36;61.07;102490.00;5570829;32;34030;-65
2022/03/22 01:29:50;;;;;;;33.33;18.45;;;;;;;0.29;61.30;102490.25;5570595;32;33992;-65
2022/03/22 01:32:55;;;;;;;36.70;18.85;;;;;;;0.23;61.53;102493.06;5570650;32;34619;-65
2022/03/22 01:36:02;;;;;;;34.95;18.90;;;;;;;0.20;61.85;102493.16;5557494;32;33937;-65
2022/03/22 01:39:05;;;;;;;36.53;18.92;;;;;;;0.31;62.38;102483.22;5556870;32;34077;-65
2022/03/22 01:42:08;;;;;;;38.15;19.15;;;;;;;0.16;62.45;102495.00;5570818;32;33936;-64
2022/03/22 01:45:11;;;;;;;35.60;18.90;;;;;;;0.18;62.66;102490.63;5570450;32;34157;-64
2022/03/22 01:48:20;;;;;;;33.42;18.20;;;;;;;0.08;62.89;102483.13;5570303;32;33962;-65
2022/03/22 01:51:23;;;;;;;40.33;19.08;;;;;;;0.01;63.17;102482.47;5570533;32;34681;-65
2022/03/22 01:54:26;;;;;;;38.92;17.80;;;;;;;-0.02;63.01;102480.81;5570404;32;34085;-65
2022/03/22 01:57:30;;;;;;;31.50;18.10;;;;;;;-0.14;63.54;102489.00;5570443;32;34369;-65
2022/03/22 02:00:33;;;;;;;37.75;18.17;;;;;;;0.05;62.90;102476.22;5570515;32;35287;-65
2022/03/22 02:06:58;;;;;;;30.60;17.42;;;;;;;-0.09;62.58;102470.59;5570478;32;33967;-65
2022/03/22 02:10:04;;;;;;;34.97;18.70;;;;;;;-0.08;62.42;102473.16;5570712;32;33945;-65
2022/03/22 02:13:08;;;;;;;36.22;18.35;;;;;;;0.26;59.52;102467.72;5570305;32;33970;-65
2022/03/22 02:16:11;;;;;;;35.50;18.70;;;;;;;0.21;59.23;102464.41;5570338;32;34227;-65
2022/03/22 02:19:14;;;;;;;37.13;17.77;;;;;;;0.03;59.54;102475.44;5569371;32;33995;-65
2022/03/22 02:22:22;;;;;;;35.95;18.15;;;;;;;-0.01;59.28;102473.84;5570160;32;34128;-65
2022/03/22 02:25:25;;;;;;;32.63;17.02;;;;;;;-0.15;59.72;102468.22;5570052;32;34166;-65
2022/03/22 02:28:28;;;;;;;35.65;17.85;;;;;;;-0.14;59.99;102472.50;5570090;32;34279;-65
2022/03/22 02:31:31;;;;;;;34.33;17.75;;;;;;;-0.17;60.21;102475.22;5570138;32;34139;-65
2022/03/22 02:34:37;;;;;;;33.47;18.50;;;;;;;-0.13;60.65;102475.06;5570268;32;33902;-65
2022/03/22 02:37:39;;;;;;;35.50;18.67;;;;;;;-0.11;61.28;102477.66;5570165;32;33880;-64
2022/03/22 02:40:44;;;;;;;33.95;18.12;;;;;;;-0.08;60.89;102469.72;5570104;32;34108;-65
2022/03/22 02:43:48;;;;;;;34.53;17.50;;;;;;;-0.28;61.46;102470.31;5570349;32;33932;-64
2022/03/22 02:46:52;;;;;;;42.88;18.17;;;;;;;-0.34;62.06;102470.53;5570076;32;34259;-65
2022/03/22 02:49:55;;;;;;;34.22;18.00;;;;;;;-0.45;62.32;102470.87;5570279;32;34522;-65
2022/03/22 02:52:57;;;;;;;36.92;19.10;;;;;;;-0.46;62.71;102473.50;5556199;32;35239;-64
2022/03/22 02:56:01;;;;;;;36.95;18.50;;;;;;;-0.41;63.23;102471.63;5569908;32;33978;-65
2022/03/22 02:59:07;;;;;;;35.83;18.50;;;;;;;-0.30;63.28;102479.97;5570369;32;34392;-65
2022/03/22 03:02:10;;;;;;;44.15;19.20;;;;;;;-0.06;63.06;102478.34;5556165;32;33998;-64
2022/03/22 03:05:13;;;;;;;36.67;18.52;;;;;;;-0.15;63.04;102476.91;5570018;32;34314;-64
2022/03/22 03:08:16;;;;;;;36.25;19.40;;;;;;;-0.08;63.57;102477.53;5569743;32;34618;-64
2022/03/22 03:11:19;;;;;;;34.97;18.80;;;;;;;-0.14;64.18;102477.72;5569721;32;34674;-65
2022/03/22 03:14:41;;;;;;;31.85;17.37;;;;;;;-0.31;64.28;102483.47;5556039;32;34337;-65
2022/03/22 03:17:43;;;;;;;30.35;18.05;;;;;;;-0.31;64.33;102482.62;5570020;32;34005;-65
2022/03/22 03:20:46;;;;;;;34.97;17.90;;;;;;;-0.32;64.03;102486.12;5569981;32;34691;-65
2022/03/22 03:23:49;;;;;;;32.10;17.45;;;;;;;-0.35;63.90;102492.31;5569636;32;35154;-65
2022/03/22 03:26:52;;;;;;;33.90;17.58;;;;;;;-0.37;64.17;102498.44;5569423;32;34163;-65
2022/03/22 03:29:54;;;;;;;33.33;17.12;;;;;;;-0.46;64.28;102495.22;5569535;32;34047;-65
2022/03/22 03:32:57;;;;;;;33.53;15.93;;;;;;;-0.49;64.70;102499.69;5569140;32;34126;-65
2022/03/22 03:36:00;;;;;;;33.05;16.65;;;;;;;-0.58;65.01;102494.75;5569399;32;33809;-65
2022/03/22 03:39:04;;;;;;;31.58;16.73;;;;;;;-0.75;65.47;102486.53;5569369;32;33894;-65
2022/03/22 03:42:07;;;;;;;29.42;16.27;;;;;;;-0.81;65.72;102490.19;5569290;32;35185;-65
2022/03/22 03:48:35;;;;;;;34.22;15.90;;;;;;;-0.68;66.40;102488.09;5569174;32;34327;-65
2022/03/22 03:51:38;;;;;;;33.35;15.98;;;;;;;-0.45;66.59;102490.87;5569071;32;34622;-65
2022/03/22 03:54:41;;;;;;;27.48;15.55;;;;;;;-0.48;66.39;102491.78;5569059;32;34048;-65
2022/03/22 03:57:44;;;;;;;29.10;16.00;;;;;;;-0.46;65.96;102489.16;5568738;32;34106;-65
2022/03/22 04:00:47;;;;;;;30.73;16.10;;;;;;;-0.59;66.64;102496.50;5568934;32;34026;-65
2022/03/22 04:03:50;;;;;;;28.73;15.88;;;;;;;-0.71;67.14;102495.97;5569214;32;34004;-65
2022/03/22 04:06:53;;;;;;;31.25;15.45;;;;;;;-0.73;67.84;102498.66;5555340;32;33923;-65
2022/03/22 04:09:56;;;;;;;32.38;16.12;;;;;;;-0.73;67.72;102498.66;5568725;32;33910;-65
2022/03/22 04:12:58;;;;;;;28.95;15.48;;;;;;;-0.79;67.93;102501.44;5555262;32;34408;-65
2022/03/22 04:16:01;;;;;;;27.90;14.95;;;;;;;-0.91;68.54;102506.97;5568572;32;33931;-65
2022/03/22 04:19:08;;;;;;;30.73;16.35;;;;;;;-0.99;69.24;102503.72;5568663;32;34743;-65
2022/03/22 04:22:11;;;;;;;27.58;15.27;;;;;;;-1.01;69.58;102505.50;5568524;32;33898;-64
2022/03/22 04:25:13;;;;;;;31.45;15.48;;;;;;;-1.11;69.98;102507.50;5568292;32;34027;-65
2022/03/22 04:34:59;;;;;;;26.87;14.18;;;;;;;-0.82;70.62;102519.72;5568565;32;34059;-65
2022/03/22 04:38:02;;;;;;;33.75;15.32;;;;;;;-0.64;70.03;102514.03;5554524;32;33927;-64
2022/03/22 04:41:08;;;;;;;29.40;15.65;;;;;;;-0.69;70.24;102513.28;5568451;32;33901;-65
2022/03/22 04:44:10;;;;;;;25.92;14.50;;;;;;;-0.43;69.92;102509.91;5570126;32;35247;-65
2022/03/22 04:47:13;;;;;;;26.25;14.65;;;;;;;-0.69;70.16;102515.91;5570846;32;34027;-65
2022/03/22 04:50:17;;;;;;;28.65;15.02;;;;;;;-0.79;70.38;102521.41;5571075;32;33968;-65
2022/03/22 04:56:46;;;;;;;26.90;14.40;;;;;;;-0.75;70.63;102521.28;5571246;32;34590;-65
2022/03/22 04:59:49;;;;;;;28.35;14.93;;;;;;;-0.72;69.12;102523.78;5570776;32;35595;-65
2022/03/22 05:02:52;;;;;;;24.87;14.38;;;;;;;-0.78;69.99;102524.00;5571139;32;34588;-65
2022/03/22 05:09:17;;;;;;;28.85;15.02;;;;;;;-0.61;68.34;102521.75;5570819;32;33951;-65
2022/03/22 05:12:20;;;;;;;29.55;15.48;;;;;;;-0.25;67.29;102525.03;5557119;32;33925;-65
2022/03/22 05:15:22;;;;;;;28.55;14.30;;;;;;;-0.09;66.37;102525.37;5571047;32;34040;-65
2022/03/22 05:18:26;;;;;;;27.37;14.20;;;;;;;-0.10;66.05;102532.34;5570719;32;34069;-65
2022/03/22 05:21:30;;;;;;;28.02;15.27;;;;;;;-0.18;66.40;102534.34;5570666;32;34633;-65
2022/03/22 05:24:33;;;;;;;28.67;15.00;;;;;;;-0.11;66.20;102530.69;5570947;32;33860;-65
2022/03/22 05:27:37;;;;;;;26.45;15.23;;;;;;;-0.01;66.11;102529.50;5557269;32;34581;-65
2022/03/22 05:30:40;;;;;;;30.62;16.33;;;;;;;0.10;66.14;102531.75;5570537;32;34551;-66
2022/03/22 05:33:43;;;;;;;30.70;14.90;;;;;;;0.30;65.23;102529.34;5570950;32;34106;-65
2022/03/22 05:36:45;;;;;;;32.72;15.45;;;;;;;0.34;65.29;102533.56;5570762;32;34045;-65
2022/03/22 05:39:48;;;;;;;34.25;15.32;;;;;;;0.38;65.24;102532.59;5570579;32;34042;-65
2022/03/22 05:42:54;;;;;;;34.40;16.27;;;;;;;0.44;65.00;102531.50;5570593;32;34653;-65
2022/03/22 05:45:56;;;;;;;34.40;16.12;;;;;;;0.66;64.48;102537.72;5570384;32;35145;-65
2022/03/22 05:48:59;;;;;;;32.88;16.30;;;;;;;0.86;62.99;102540.53;5570427;32;35374;-65
2022/03/22 05:52:03;;;;;;;31.62;14.50;;;;;;;0.99;62.52;102533.09;5570369;32;33993;-65
2022/03/22 05:55:07;;;;;;;32.75;15.07;;;;;;;1.04;62.52;102541.63;5570363;32;34682;-65
2022/03/22 05:58:10;;;;;;;36.08;14.73;;;;;;;1.15;62.04;102542.13;5570440;32;33932;-65
2022/03/22 06:01:13;;;;;;;30.52;14.23;;;;;;;1.41;60.35;102549.00;5570251;32;34039;-65
2022/03/22 06:04:16;;;;;;;31.20;14.48;;;;;;;1.31;60.83;102548.47;5570481;32;35158;-65
2022/03/22 06:07:20;;;;;;;29.35;14.77;;;;;;;1.43;60.11;102552.41;5556231;32;33886;-65
2022/03/22 06:10:23;;;;;;;38.92;15.15;;;;;;;1.49;59.99;102548.72;5570121;32;34078;-65
2022/03/22 06:13:25;;;;;;;34.67;15.05;;;;;;;1.61;58.76;102553.50;5556479;32;34033;-65
2022/03/22 06:16:28;;;;;;;34.53;15.27;;;;;;;1.75;58.13;102552.06;5569999;32;34667;-65
2022/03/22 06:19:32;;;;;;;32.47;14.87;;;;;;;1.96;57.06;102552.16;5556488;32;34521;-65
2022/03/22 06:22:37;;;;;;;30.98;13.38;;;;;;;2.21;56.24;102560.75;5570075;32;34477;-65
2022/03/22 06:25:41;;;;;;;27.15;13.18;;;;;;;2.51;55.26;102556.03;5569942;32;34002;-65
2022/03/22 06:28:44;;;;;;;32.15;13.85;;;;;;;3.09;53.52;102557.06;5569733;32;34771;-65
2022/03/22 06:31:47;;;;;;;29.25;14.73;;;;;;;3.71;51.05;102556.84;5569823;32;34749;-65
2022/03/22 06:34:52;;;;;;;45.70;18.90;;;;;;;4.41;49.10;102556.13;5569824;32;34458;-65
2022/03/22 06:37:54;;;;;;;27.37;13.82;;;;;;;4.57;49.62;102557.06;5570354;32;35205;-65
2022/03/22 06:40:57;;;;;;;35.30;14.45;;;;;;;4.75;48.34;102560.56;5569759;32;35270;-65
2022/03/22 06:43:59;;;;;;;28.33;13.48;;;;;;;5.38;46.07;102558.16;5569829;32;33869;-65
2022/03/22 06:47:04;;;;;;;30.33;14.43;;;;;;;5.55;45.76;102561.63;5569667;32;33969;-65
2022/03/22 06:50:09;;;;;;;35.00;14.38;;;;;;;6.05;44.88;102560.66;5556337;32;34235;-63
2022/03/22 06:53:13;;;;;;;37.13;15.55;;;;;;;6.20;44.05;102561.56;5569689;32;34172;-63
2022/03/22 06:56:15;;;;;;;24.60;13.32;;;;;;;6.95;42.23;102557.16;5569859;32;33931;-65
2022/03/22 06:59:18;;;;;;;28.10;13.35;;;;;;;6.91;41.74;102558.28;5569723;32;35228;-65
2022/03/22 07:02:21;;;;;;;31.55;14.70;;;;;;;7.61;40.13;102556.59;5569772;32;34572;-64
2022/03/22 07:05:25;;;;;;;31.40;14.73;;;;;;;7.67;40.94;102569.44;5569178;32;33927;-64
2022/03/22 07:08:27;;;;;;;28.55;14.87;;;;;;;8.85;38.39;102558.22;5569373;32;34194;-64
2022/03/22 07:14:52;;;;;;;30.50;14.30;;;;;;;9.29;36.12;102556.97;5569537;32;34029;-64
2022/03/22 07:17:58;;;;;;;25.67;13.38;;;;;;;10.30;34.60;102548.81;5569021;32;34570;-65
2022/03/22 07:21:04;;;;;;;25.12;12.75;;;;;;;9.95;34.53;102554.00;5570003;32;34038;-65
2022/03/22 07:24:09;;;;;;;30.62;12.82;;;;;;;11.13;32.24;102555.72;5569278;32;34692;-65
2022/03/22 07:27:11;;;;;;;23.73;13.77;;;;;;;11.63;32.58;102557.06;5569212;32;34790;-65
2022/03/22 07:30:15;;;;;;;21.12;12.48;;;;;;;12.63;30.29;102556.84;5569055;32;35341;-64
2022/03/22 07:33:18;;;;;;;25.52;12.82;;;;;;;12.74;30.42;102561.28;5569155;32;34138;-63
2022/03/22 07:36:21;;;;;;;30.23;13.02;;;;;;;13.13;28.77;102556.22;5569242;32;33904;-65
2022/03/22 07:39:43;;;;;;;31.65;12.10;;;;;;;13.86;27.45;102561.34;5568647;32;34061;-64
2022/03/22 07:42:49;;;;;;;26.92;11.63;;;;;;;14.42;25.88;102555.44;5568699;32;34607;-64
2022/03/22 07:45:51;;;;;;;20.45;11.73;;;;;;;13.84;26.78;102555.31;5555657;32;34520;-64
2022/03/22 07:48:54;;;;;;;17.20;10.65;;;;;;;15.10;25.04;102563.22;5554553;32;34633;-64
2022/03/22 07:55:19;;;;;;;21.50;11.12;;;;;;;13.91;24.26;102564.44;5568809;32;34269;-65
2022/03/22 07:58:22;;;;;;;22.30;11.30;;;;;;;14.84;23.49;102554.16;5568974;32;33879;-64
2022/03/22 08:01:26;;;;;;;17.20;11.40;;;;;;;13.85;24.15;102554.31;5568683;32;34626;-65
2022/03/22 08:04:29;;;;;;;18.70;10.93;;;;;;;15.18;23.39;102557.16;5568680;32;34203;-65
2022/03/22 08:07:32;;;;;;;27.15;12.63;;;;;;;16.28;21.97;102555.37;5568712;32;33929;-65
2022/03/22 08:10:35;;;;;;;20.42;11.60;;;;;;;16.25;21.88;102548.50;5568560;32;33863;-64
2022/03/22 08:13:38;;;;;;;22.10;12.20;;;;;;;17.61;20.80;102547.03;5568608;32;33964;-64
2022/03/22 08:16:42;;;;;;;22.35;12.05;;;;;;;15.60;21.97;102552.25;5568409;32;34135;-65
2022/03/22 08:19:44;;;;;;;21.95;12.93;;;;;;;16.14;21.82;102546.03;5570618;32;33941;-65
2022/03/22 08:22:50;;;;;;;20.92;12.20;;;;;;;18.24;20.17;102539.34;5571182;32;33899;-65
2022/03/22 08:25:58;;;;;;;26.33;13.27;;;;;;;17.73;20.29;102545.75;5558335;32;33963;-65
2022/03/22 08:29:01;;;;;;;26.12;13.27;;;;;;;18.06;20.15;102541.31;5571241;31;34653;-65
2022/03/22 08:32:04;;;;;;;22.70;11.93;;;;;;;17.87;19.87;102538.06;5571018;32;33931;-65
2022/03/22 08:35:07;;;;;;;25.17;13.18;;;;;;;18.65;19.57;102534.84;5570987;32;34494;-65
2022/03/22 08:38:10;;;;;;;25.90;13.48;;;;;;;21.09;17.66;102529.09;5571049;32;34018;-65
2022/03/22 08:41:13;;;;;;;23.05;12.98;;;;;;;19.36;18.53;102542.16;5570686;32;34615;-65
2022/03/22 08:44:16;;;;;;;23.40;13.02;;;;;;;18.62;19.92;102534.38;5570983;32;34862;-66
2022/03/22 08:47:19;;;;;;;20.90;13.50;;;;;;;19.60;18.38;102532.34;5571124;32;35343;-65
2022/03/22 08:50:22;;;;;;;28.17;13.93;;;;;;;20.45;17.20;102525.13;5570705;32;34536;-66
2022/03/22 08:53:26;;;;;;;24.02;13.68;;;;;;;20.86;16.88;102522.91;5570857;32;34068;-66
2022/03/22 08:56:28;;;;;;;20.90;13.23;;;;;;;20.37;16.61;102517.94;5570857;32;34069;-66
2022/03/22 08:59:31;;;;;;;24.17;13.45;;;;;;;20.13;16.85;102523.47;5570847;32;34029;-66
2022/03/22 09:02:34;;;;;;;21.67;12.90;;;;;;;19.13;17.96;102519.66;5570711;32;33947;-65
2022/03/22 09:08:58;;;;;;;27.35;13.62;;;;;;;14.67;22.11;102515.63;5570872;32;34345;-65
2022/03/22 09:12:01;;;;;;;21.92;14.02;;;;;;;14.10;22.97;102510.25;5570681;32;34795;-65
2022/03/22 09:15:04;;;;;;;22.08;13.50;;;;;;;13.24;23.48;102503.69;5570691;32;33900;-67
2022/03/22 09:18:14;;;;;;;22.40;13.10;;;;;;;13.04;24.27;102508.06;5570486;32;34649;-65
2022/03/22 09:21:17;;;;;;;23.48;13.68;;;;;;;12.90;24.44;102505.72;5570443;32;34497;-65
2022/03/22 09:24:20;;;;;;;25.42;13.88;;;;;;;12.91;24.33;102491.44;5570512;32;34710;-65
2022/03/22 09:27:24;;;;;;;25.80;13.55;;;;;;;12.66;24.63;102489.19;5570332;32;34000;-65
2022/03/22 09:30:27;;;;;;;24.95;13.60;;;;;;;12.61;24.61;102492.22;5531152;32;34643;-64
2022/03/22 09:33:30;;;;;;;26.52;13.23;;;;;;;12.42;24.70;102488.56;5531490;32;34214;-64
2022/03/22 09:36:33;;;;;;;23.77;13.20;;;;;;;12.23;25.06;102483.94;5529934;32;35456;-64
2022/03/22 09:39:36;;;;;;;26.35;13.65;;;;;;;12.19;25.59;102486.03;5531289;32;34500;-65
2022/03/22 09:42:42;;;;;;;27.75;12.98;;;;;;;12.24;25.03;102487.47;5531327;32;33986;-65
2022/03/22 09:45:45;;;;;;;29.63;12.80;;;;;;;12.36;25.23;102483.75;5531474;32;34277;-64
2022/03/22 09:48:51;;;;;;;30.88;13.10;;;;;;;12.49;24.99;102490.59;5530933;32;34541;-64
2022/03/22 09:51:54;;;;;;;22.48;11.90;;;;;;;12.51;25.26;102483.31;5531373;32;34635;-64
2022/03/22 09:54:56;;;;;;;23.20;12.73;;;;;;;12.67;24.55;102482.03;5531184;32;33908;-64
2022/03/22 09:57:59;;;;;;;24.08;11.80;;;;;;;12.76;24.27;102484.75;5531226;32;34055;-64
2022/03/22 10:01:02;;;;;;;24.60;12.15;;;;;;;12.79;24.50;102480.97;5531020;32;35151;-64
2022/03/22 10:04:07;;;;;;;22.80;12.18;;;;;;;12.79;24.53;102470.31;5530839;32;33895;-64
2022/03/22 10:07:18;;;;;;;23.62;13.05;;;;;;;12.59;24.93;102466.69;5530802;32;34805;-64
2022/03/22 10:10:21;;;;;;;21.95;11.88;;;;;;;12.78;24.56;102466.81;5530391;32;33883;-64
2022/03/22 10:13:24;;;;;;;23.87;12.18;;;;;;;12.72;24.51;102464.69;5531132;32;34072;-64
2022/03/22 10:16:27;;;;;;;20.67;11.60;;;;;;;12.62;24.48;102461.13;5530892;32;34026;-65
2022/03/22 10:19:30;;;;;;;21.87;13.10;;;;;;;12.72;24.44;102447.88;5530109;32;33885;-65
2022/03/22 10:22:34;;;;;;;21.77;12.80;;;;;;;13.05;24.16;102447.63;5531119;32;34477;-65
2022/03/22 10:25:39;;;;;;;27.35;12.82;;;;;;;13.33;23.74;102441.59;5531105;32;33941;-64
2022/03/22 10:28:54;;;;;;;24.50;12.35;;;;;;;13.55;23.71;102443.19;5542200;32;156197;-65
2022/03/22 10:32:03;;;;;;;21.62;12.25;;;;;;;13.51;23.56;102440.94;5569673;32;33962;-64
2022/03/22 10:35:33;;;;;;;22.37;11.82;;;;;;;13.43;23.48;102438.94;5568859;32;34599;-64
2022/03/22 10:38:36;;;;;;;20.45;11.55;;;;;;;13.36;23.76;102427.97;5566961;32;34278;-64
2022/03/22 10:41:44;;;;;;;22.83;11.43;;;;;;;13.71;23.20;102431.97;5568432;32;34682;-65
2022/03/22 10:44:47;;;;;;;22.40;12.15;;;;;;;14.06;22.72;102431.44;5569480;32;34011;-64
2022/03/22 10:47:50;;;;;;;21.50;11.57;;;;;;;13.92;22.69;102427.38;5555876;32;34144;-64
2022/03/22 10:50:55;;;;;;;20.52;12.07;;;;;;;14.06;22.29;102424.28;5569605;32;34625;-64
2022/03/22 10:53:58;;;;;;;23.17;10.88;;;;;;;13.88;22.66;102428.66;5569471;32;34125;-64
2022/03/22 10:57:01;;;;;;;18.37;9.90;;;;;;;14.06;22.07;102418.09;5569472;32;34621;-64
2022/03/22 11:00:07;;;;;;;20.55;10.45;;;;;;;14.08;22.07;102408.16;5569392;32;34075;-65
2022/03/22 11:03:11;;;;;;;18.00;8.18;;;;;;;15.04;20.91;102398.09;5569604;32;34557;-65
2022/03/22 11:06:16;;;;;;;19.33;8.65;;;;;;;18.23;16.91;102397.09;5555686;32;33950;-65
2022/03/22 11:09:25;;;;;;;18.10;9.00;;;;;;;20.18;15.19;102397.94;5570671;32;34226;-64
2022/03/22 11:12:29;;;;;;;19.73;9.18;;;;;;;21.92;14.75;102386.37;5569791;32;33914;-65
2022/03/22 11:15:45;;;;;;;17.73;9.95;;;;;;;21.94;14.44;102387.03;5569446;32;34401;-65
2022/03/22 11:18:49;;;;;;;17.87;9.20;;;;;;;24.57;12.62;102379.97;5569503;32;34031;-66
2022/03/22 11:21:52;;;;;;;13.27;7.82;;;;;;;26.20;11.77;102381.22;5569451;32;34029;-66
2022/03/22 11:25:09;;;;;;;16.05;8.45;;;;;;;24.79;11.79;102377.81;5569503;32;33908;-65
2022/03/22 11:28:18;;;;;;;18.27;8.02;;;;;;;23.24;13.02;102376.44;5569056;32;34064;-66
2022/03/22 11:31:26;;;;;;;17.87;9.00;;;;;;;25.50;11.72;102359.56;5569751;32;34445;-66
2022/03/22 11:34:30;;;;;;;19.83;8.80;;;;;;;25.98;11.23;102359.03;5568974;32;33980;-66
2022/03/22 11:37:34;;;;;;;18.75;8.80;;;;;;;26.62;10.94;102357.84;5555251;32;35252;-66
2022/03/22 11:44:15;;;;;;;16.45;9.40;;;;;;;25.75;11.54;102359.66;5569103;32;34439;-66
2022/03/22 11:47:18;;;;;;;12.37;8.07;;;;;;;25.90;11.25;102351.97;5554990;32;34008;-66
2022/03/22 11:50:22;;;;;;;18.08;8.45;;;;;;;25.15;11.95;102336.56;5568748;32;34565;-65
2022/03/22 11:53:25;;;;;;;14.40;8.43;;;;;;;24.14;12.42;102340.75;5570849;32;33967;-66
2022/03/22 11:56:28;;;;;;;15.50;8.93;;;;;;;23.81;12.89;102332.66;5571636;32;33949;-66
2022/03/22 11:59:42;;;;;;;19.23;8.73;;;;;;;23.04;13.51;102334.94;5571106;32;34659;-66
2022/03/22 12:02:51;;;;;;;23.90;9.50;;;;;;;23.56;13.46;102321.56;5557632;32;34647;-66
2022/03/22 12:05:55;;;;;;;14.70;8.40;;;;;;;24.00;12.78;102314.72;5557522;32;34667;-66
2022/03/22 12:08:59;;;;;;;16.48;8.77;;;;;;;25.51;12.42;102316.94;5570930;32;34269;-67
2022/03/22 12:12:06;;;;;;;12.60;7.95;;;;;;;26.69;11.54;102312.28;5571018;32;34275;-67
2022/03/22 12:15:11;;;;;;;16.58;8.35;;;;;;;29.85;9.72;102306.50;5571041;32;34230;-65
2022/03/22 12:18:15;;;;;;;15.30;8.05;;;;;;;26.47;11.60;102303.75;5571035;32;34276;-66
2022/03/22 12:21:19;;;;;;;11.12;7.47;;;;;;;29.94;10.04;102292.19;5571215;32;34732;-66
2022/03/22 12:24:24;;;;;;;13.55;7.75;;;;;;;29.00;10.58;102290.22;5571070;32;34639;-66
2022/03/22 12:27:27;;;;;;;12.02;8.05;;;;;;;28.71;10.46;102281.97;5571299;32;35225;-66
2022/03/22 12:30:33;;;;;;;12.45;6.95;;;;;;;27.41;11.14;102272.34;5557330;32;33854;-66
2022/03/22 12:33:36;;;;;;;12.43;7.25;;;;;;;28.75;10.34;102265.97;5570849;32;34732;-66
2022/03/22 12:36:40;;;;;;;11.15;6.90;;;;;;;29.36;10.18;102265.22;5557226;32;34505;-66
2022/03/22 12:39:44;;;;;;;11.50;8.02;;;;;;;29.88;10.04;102260.28;5571057;32;33922;-67
2022/03/22 12:43:00;;;;;;;12.27;7.28;;;;;;;31.88;8.99;102253.81;5570748;32;34244;-66
2022/03/22 12:46:03;;;;;;;13.82;7.32;;;;;;;29.16;10.30;102248.41;5570790;32;34754;-67
2022/03/22 12:49:07;;;;;;;12.85;7.85;;;;;;;30.58;9.46;102246.81;5557165;32;34642;-67
2022/03/22 12:52:11;;;;;;;15.55;8.40;;;;;;;28.49;10.39;102246.28;5570494;32;34781;-68
2022/03/22 12:55:15;;;;;;;14.82;8.10;;;;;;;30.59;9.51;102245.72;5570734;32;34324;-66
2022/03/22 12:58:26;;;;;;;15.13;8.70;;;;;;;28.94;10.18;102230.00;5570472;32;34380;-66
2022/03/22 13:01:40;;;;;;;18.10;8.40;;;;;;;30.59;9.49;102218.34;5570516;32;33974;-66
2022/03/22 13:04:47;;;;;;;13.80;8.20;;;;;;;26.27;11.97;102213.34;5569851;32;34727;-67
2022/03/22 13:07:50;;;;;;;12.43;7.20;;;;;;;24.75;13.24;102207.44;5556994;32;34024;-67
2022/03/22 13:17:45;;;;;;;13.15;6.00;;;;;;;31.00;9.11;102194.91;5570770;32;34869;-68
2022/03/22 13:20:49;;;;;;;12.32;7.03;;;;;;;29.89;9.85;102196.31;5570779;32;35271;-67
2022/03/22 13:24:05;;;;;;;10.48;6.32;;;;;;;30.51;9.50;102194.12;5570661;32;35236;-68
2022/03/22 13:27:09;;;;;;;11.10;6.65;;;;;;;29.98;9.58;102188.50;5570685;32;34402;-67
2022/03/22 13:30:19;;;;;;;10.15;6.35;;;;;;;28.92;10.12;102182.13;5556569;32;34041;-67
2022/03/22 13:33:30;;;;;;;10.95;6.43;;;;;;;29.12;10.10;102181.66;5570386;32;35175;-67
2022/03/22 13:36:33;;;;;;;13.82;6.28;;;;;;;30.38;9.48;102175.31;5570315;32;34043;-68
2022/03/22 13:39:51;;;;;;;8.77;5.75;;;;;;;31.99;8.85;102175.09;5570315;32;35285;-67
2022/03/22 13:43:08;;;;;;;9.57;6.03;;;;;;;31.92;8.83;102172.56;5570301;32;34084;-67
2022/03/22 13:46:11;;;;;;;11.77;5.90;;;;;;;29.93;9.73;102172.00;5570340;32;35378;-67
2022/03/22 13:49:14;;;;;;;10.48;5.80;;;;;;;29.73;9.80;102175.25;5570359;32;33999;-67
2022/03/22 13:52:28;;;;;;;11.32;5.65;;;;;;;31.08;8.66;102166.22;5570549;32;34353;-68
2022/03/22 13:55:33;;;;;;;9.48;5.68;;;;;;;29.50;9.55;102161.78;5569955;32;33923;-67
2022/03/22 13:58:38;;;;;;;8.80;4.90;;;;;;;28.95;9.67;102155.13;5570239;32;33983;-66
2022/03/22 14:01:41;;;;;;;14.55;5.70;;;;;;;28.37;10.18;102162.78;5570093;32;33910;-66
2022/03/22 14:04:45;;;;;;;9.70;5.22;;;;;;;27.55;10.63;102151.97;5570229;32;34297;-67
2022/03/22 14:07:51;;;;;;;10.98;5.37;;;;;;;30.25;8.99;102144.78;5570462;32;33941;-67
2022/03/22 14:10:58;;;;;;;8.65;5.32;;;;;;;29.74;9.19;102149.56;5556623;32;33959;-66
2022/03/22 14:14:01;;;;;;;10.27;5.18;;;;;;;28.00;10.31;102140.41;5570487;32;33996;-67
2022/03/22 14:17:04;;;;;;;9.88;5.57;;;;;;;29.27;9.57;102130.81;5570096;32;34864;-67
2022/03/22 14:20:13;;;;;;;8.15;5.20;;;;;;;29.71;9.29;102126.28;5569909;32;35184;-66
2022/03/22 14:23:17;;;;;;;9.80;5.68;;;;;;;28.47;10.01;102128.28;5570489;32;34385;-67
2022/03/22 14:26:20;;;;;;;12.40;6.40;;;;;;;27.88;10.27;102113.16;5570008;32;34111;-67
2022/03/22 14:29:23;;;;;;;8.95;5.22;;;;;;;30.98;8.78;102114.03;5568854;32;34082;-67
2022/03/22 14:32:26;;;;;;;9.63;5.05;;;;;;;30.26;9.01;102108.09;5569602;32;34038;-67
2022/03/22 14:38:52;;;;;;;8.35;5.15;;;;;;;27.49;10.53;102095.69;5569336;32;35262;-67
2022/03/22 14:41:55;;;;;;;13.62;4.78;;;;;;;29.05;10.15;102093.56;5569562;32;34298;-67
2022/03/22 14:44:58;;;;;;;10.93;4.70;;;;;;;28.00;10.21;102086.66;5569976;32;34403;-67
2022/03/22 14:48:02;;;;;;;13.60;4.70;;;;;;;25.01;11.47;102083.25;5569654;32;34116;-67